Terminal Aerodrome Forecast
Issued by NWS

Home | Current Version | Previous Version | Text Only | Print | Product List | Glossary On
Versions: 1 2 3 4 5 6 7 8 9 10 11 12 13 14 15
875
FTUS44 KTSA 251122
TAFXNA
TAF
KXNA 251122Z 2512/2612 15012KT P6SM VCTS BKN035CB
     FM251600 18012KT P6SM BKN025
     FM252100 18013G19KT P6SM BKN040
     FM260200 17009KT P6SM BKN100
     FM260900 18009KT P6SM BKN025=

USA.gov is the U.S. government's official web portal to all federal, state and local government web resources and services.